Time;durP1;ratioP1;P1;durP2;ratioP2;P2;SDS_P1;SDS_P2;PMS_P1;PMS_P2;Temp;Humidity;BMP_temperature;BMP_pressure;BME280_temperature;BME280_humidity;BME280_pressure;Samples;Min_cycle;Max_cycle;Signal;HPM_P1;HPM_P2
2023/08/21 00:01:06;;;;;;;9.20;5.60;;;21.00;99.90;;;;;;4949306;28;20445;-60
2023/08/21 00:03:31;;;;;;;11.88;6.55;;;21.00;99.90;;;;;;4949120;29;20081;-63
2023/08/21 00:05:57;;;;;;;7.60;6.25;;;21.00;99.90;;;;;;4944830;29;20489;-60
2023/08/21 00:08:23;;;;;;;7.00;5.45;;;21.00;99.90;;;;;;4945172;29;20106;-60
2023/08/21 00:10:49;;;;;;;7.70;5.72;;;21.00;99.90;;;;;;4949335;28;20038;-60
2023/08/21 00:13:14;;;;;;;9.10;5.93;;;21.00;99.90;;;;;;4948838;28;20023;-60
2023/08/21 00:15:40;;;;;;;10.35;6.72;;;21.00;99.90;;;;;;4939228;28;20389;-60
2023/08/21 00:18:05;;;;;;;7.93;5.70;;;21.00;99.90;;;;;;4929595;29;20059;-60
2023/08/21 00:20:31;;;;;;;6.45;5.75;;;21.00;99.90;;;;;;4929916;29;20110;-60
2023/08/21 00:22:57;;;;;;;7.50;6.20;;;21.00;99.90;;;;;;4929994;29;20112;-60
2023/08/21 00:25:22;;;;;;;7.10;5.97;;;21.00;99.90;;;;;;4929940;29;20062;-60
2023/08/21 00:27:48;;;;;;;11.13;6.53;;;21.00;99.90;;;;;;4929466;29;20098;-60
2023/08/21 00:30:14;;;;;;;9.60;6.63;;;21.00;99.90;;;;;;4929791;29;20093;-60
2023/08/21 00:32:40;;;;;;;8.95;7.15;;;21.00;99.90;;;;;;4929642;29;20024;-60
2023/08/21 00:35:06;;;;;;;10.15;6.15;;;20.90;99.90;;;;;;4929658;29;20550;-60
2023/08/21 00:37:32;;;;;;;9.52;7.43;;;20.90;99.90;;;;;;4929360;29;20373;-61
2023/08/21 00:39:57;;;;;;;7.55;6.80;;;20.80;99.90;;;;;;4928848;29;20473;-61
2023/08/21 00:42:23;;;;;;;8.57;7.15;;;20.70;99.90;;;;;;4944965;28;20031;-62
2023/08/21 00:44:49;;;;;;;8.18;6.22;;;20.70;99.90;;;;;;4948727;28;20109;-60
2023/08/21 00:47:14;;;;;;;7.53;6.35;;;20.70;99.90;;;;;;4943765;28;20027;-60
2023/08/21 00:49:40;;;;;;;8.55;6.78;;;20.60;99.90;;;;;;4947077;29;20488;-60
2023/08/21 00:52:08;;;;;;;10.07;6.65;;;20.60;99.90;;;;;;4948476;28;20098;-60
2023/08/21 00:54:35;;;;;;;8.30;7.00;;;20.50;99.90;;;;;;4942390;28;20038;-60
2023/08/21 00:57:01;;;;;;;9.75;6.88;;;20.40;99.90;;;;;;4947876;28;20455;-60
2023/08/21 00:59:26;;;;;;;9.07;7.05;;;20.40;99.90;;;;;;4948416;28;20024;-60
2023/08/21 01:01:52;;;;;;;9.60;7.43;;;20.40;99.90;;;;;;4945310;29;20048;-61
2023/08/21 01:04:17;;;;;;;7.38;6.68;;;20.30;99.90;;;;;;4939353;29;20015;-60
2023/08/21 01:06:43;;;;;;;7.97;7.28;;;20.30;99.90;;;;;;4947032;29;20023;-61
2023/08/21 01:09:17;;;;;;;8.90;7.25;;;20.20;99.90;;;;;;4947942;28;20031;-60
2023/08/21 01:12:08;;;;;;;12.05;8.07;;;20.20;99.90;;;;;;4948566;28;20034;-60
2023/08/21 01:14:37;;;;;;;;;;;20.10;99.90;;;;;;4959568;28;20110;-60
2023/08/21 01:17:07;;;;;;;7.55;6.82;;;20.00;99.90;;;;;;4941908;28;19911;-61
2023/08/21 01:19:44;;;;;;;8.18;7.35;;;19.90;99.90;;;;;;4945944;28;20123;-61
2023/08/21 01:22:09;;;;;;;10.63;7.82;;;19.80;99.90;;;;;;4948061;28;20023;-61
2023/08/21 01:24:35;;;;;;;8.93;7.25;;;19.70;99.90;;;;;;4949061;28;20031;-61
2023/08/21 01:27:01;;;;;;;7.68;6.97;;;19.60;99.90;;;;;;4947629;29;20022;-60
2023/08/21 01:29:27;;;;;;;8.98;7.10;;;19.60;99.90;;;;;;4948112;28;20024;-61
2023/08/21 01:32:07;;;;;;;8.18;7.35;;;19.50;99.90;;;;;;4947957;28;20007;-60
2023/08/21 01:34:34;;;;;;;9.95;8.40;;;19.40;99.90;;;;;;4947805;29;20073;-59
2023/08/21 01:37:01;;;;;;;11.80;8.30;;;19.50;99.90;;;;;;4943088;28;20055;-60
2023/08/21 01:39:27;;;;;;;8.43;7.57;;;19.40;99.90;;;;;;4936786;29;20042;-60
2023/08/21 01:41:52;;;;;;;7.93;7.13;;;19.40;99.90;;;;;;4929190;29;20531;-60
2023/08/21 01:44:18;;;;;;;11.52;8.50;;;19.30;99.90;;;;;;4929132;29;20055;-60
2023/08/21 01:46:43;;;;;;;8.68;7.78;;;19.20;99.90;;;;;;4928146;29;20047;-60
2023/08/21 01:49:09;;;;;;;8.75;7.95;;;19.10;99.90;;;;;;4953473;28;20062;-60
2023/08/21 01:51:34;;;;;;;8.30;7.50;;;19.20;99.90;;;;;;4948365;29;20028;-60
2023/08/21 01:54:00;;;;;;;9.38;8.38;;;19.20;99.90;;;;;;4951118;28;20051;-60
2023/08/21 01:56:26;;;;;;;12.23;8.00;;;19.20;99.90;;;;;;4951193;28;20069;-59
2023/08/21 01:58:51;;;;;;;13.98;8.77;;;19.20;99.90;;;;;;4950987;28;20507;-59
2023/08/21 02:01:18;;;;;;;16.73;10.32;;;19.20;99.90;;;;;;4944988;29;20027;-59
2023/08/21 02:03:44;;;;;;;10.23;8.85;;;19.30;99.90;;;;;;4948106;29;20031;-58
2023/08/21 02:06:10;;;;;;;10.85;8.70;;;19.30;99.90;;;;;;4950890;28;20084;-59
2023/08/21 02:08:35;;;;;;;10.98;8.73;;;19.30;99.90;;;;;;4950370;28;20102;-59
2023/08/21 02:11:01;;;;;;;9.73;8.70;;;19.30;99.90;;;;;;4950989;29;20019;-60
2023/08/21 02:13:26;;;;;;;11.18;7.93;;;19.20;99.90;;;;;;4950914;29;20503;-59
2023/08/21 02:15:52;;;;;;;12.23;8.05;;;19.10;99.90;;;;;;4951141;28;20023;-59
2023/08/21 02:18:18;;;;;;;11.27;8.60;;;19.10;99.90;;;;;;4950308;28;20046;-59
2023/08/21 02:20:43;;;;;;;9.48;8.48;;;19.00;99.90;;;;;;4950557;28;20473;-60
2023/08/21 02:23:09;;;;;;;10.80;8.63;;;19.00;99.90;;;;;;4950582;29;20051;-60
2023/08/21 02:25:35;;;;;;;14.70;9.68;;;19.00;99.90;;;;;;4950596;29;20392;-60
2023/08/21 02:28:01;;;;;;;12.77;9.95;;;19.00;99.90;;;;;;4950271;28;20023;-60
2023/08/21 02:30:28;;;;;;;12.07;9.55;;;19.00;99.90;;;;;;4950730;28;20102;-60
2023/08/21 02:32:54;;;;;;;9.82;8.52;;;19.00;99.90;;;;;;4950634;28;20046;-60
2023/08/21 02:35:20;;;;;;;12.50;8.50;;;19.00;99.90;;;;;;4943078;28;20050;-60
2023/08/21 02:37:46;;;;;;;12.65;9.98;;;19.00;99.90;;;;;;4948722;29;20023;-59
2023/08/21 02:40:11;;;;;;;11.43;8.40;;;19.00;99.90;;;;;;4950734;28;20126;-60
2023/08/21 02:42:37;;;;;;;11.88;8.20;;;19.00;99.90;;;;;;4950546;28;20091;-59
2023/08/21 02:45:07;;;;;;;12.15;8.15;;;18.90;99.90;;;;;;4947049;28;20047;-60
2023/08/21 02:47:37;;;;;;;10.23;9.07;;;18.90;99.90;;;;;;4942420;29;20051;-60
2023/08/21 02:50:07;;;;;;;11.32;8.77;;;18.90;99.90;;;;;;4943013;29;20043;-60
2023/08/21 02:52:33;;;;;;;12.50;8.82;;;18.80;99.90;;;;;;4950255;29;20118;-58
2023/08/21 02:54:59;;;;;;;8.77;7.85;;;18.70;99.90;;;;;;4942394;29;20057;-60
2023/08/21 02:57:25;;;;;;;8.73;7.72;;;18.60;99.90;;;;;;4949822;28;20079;-60
2023/08/21 02:59:50;;;;;;;10.05;8.35;;;18.50;99.90;;;;;;4947735;28;20033;-60
2023/08/21 03:02:17;;;;;;;9.82;7.93;;;18.40;99.90;;;;;;4943824;28;20033;-60
2023/08/21 03:04:43;;;;;;;8.93;8.02;;;18.30;99.90;;;;;;4942363;29;20027;-60
2023/08/21 03:07:08;;;;;;;8.48;7.40;;;18.30;99.90;;;;;;4948554;29;20026;-60
2023/08/21 03:09:34;;;;;;;8.27;7.47;;;18.20;99.90;;;;;;4934550;29;20027;-60
2023/08/21 03:11:59;;;;;;;9.68;8.23;;;18.10;99.90;;;;;;4937974;29;20032;-60
2023/08/21 03:14:26;;;;;;;9.80;7.97;;;18.20;99.90;;;;;;4945489;29;20107;-60
2023/08/21 03:16:52;;;;;;;9.45;8.00;;;18.10;99.90;;;;;;4949693;29;20260;-60
2023/08/21 03:19:18;;;;;;;9.10;7.82;;;18.10;99.90;;;;;;4950095;28;20028;-59
2023/08/21 03:21:43;;;;;;;9.40;8.43;;;18.00;99.90;;;;;;4949922;28;20035;-59
2023/08/21 03:24:09;;;;;;;10.20;8.90;;;17.90;99.90;;;;;;4950025;28;20038;-60
2023/08/21 03:26:35;;;;;;;10.82;9.73;;;17.90;99.90;;;;;;4945165;29;20038;-61
2023/08/21 03:29:01;;;;;;;11.50;9.27;;;18.00;99.90;;;;;;4941779;29;20129;-61
2023/08/21 03:31:26;;;;;;;14.27;9.82;;;18.00;99.90;;;;;;4949774;28;20027;-61
2023/08/21 03:33:52;;;;;;;10.90;9.55;;;18.10;99.90;;;;;;4949886;28;20301;-60
2023/08/21 03:36:18;;;;;;;10.52;9.18;;;18.20;99.90;;;;;;4949527;28;20031;-61
2023/08/21 03:38:44;;;;;;;9.60;8.55;;;18.10;99.90;;;;;;4945886;28;20424;-60
2023/08/21 03:41:10;;;;;;;11.05;8.90;;;18.10;99.90;;;;;;4949593;28;20032;-61
2023/08/21 03:43:35;;;;;;;12.00;9.00;;;18.00;99.90;;;;;;4949453;28;20028;-60
2023/08/21 03:46:01;;;;;;;8.70;7.90;;;17.90;99.90;;;;;;4949628;29;20073;-58
2023/08/21 03:48:26;;;;;;;9.20;8.30;;;17.80;99.90;;;;;;4949323;28;20248;-58
2023/08/21 03:50:52;;;;;;;10.35;8.88;;;17.80;99.90;;;;;;4949754;29;20554;-60
2023/08/21 03:53:18;;;;;;;11.98;9.30;;;17.80;99.90;;;;;;4949798;28;20031;-59
2023/08/21 03:55:43;;;;;;;9.43;8.52;;;17.70;99.90;;;;;;4949787;28;20039;-58
2023/08/21 03:58:09;;;;;;;10.02;8.93;;;17.60;99.90;;;;;;4943029;28;20031;-58
2023/08/21 04:00:34;;;;;;;10.57;8.60;;;17.70;99.90;;;;;;4940667;29;20393;-58
2023/08/21 04:03:00;;;;;;;10.10;8.95;;;17.60;99.90;;;;;;4949313;29;20024;-59
2023/08/21 04:05:25;;;;;;;11.52;9.10;;;17.60;99.90;;;;;;4933685;29;20417;-59
2023/08/21 04:07:51;;;;;;;11.02;9.02;;;17.60;99.90;;;;;;4938106;29;20027;-59
2023/08/21 04:10:17;;;;;;;13.15;8.73;;;17.60;99.90;;;;;;4949221;29;20034;-59
2023/08/21 04:12:42;;;;;;;10.50;8.57;;;17.50;99.90;;;;;;4948365;29;20043;-58
2023/08/21 04:15:08;;;;;;;9.07;8.18;;;17.60;99.90;;;;;;4948636;28;20031;-59
2023/08/21 04:17:34;;;;;;;9.75;8.32;;;17.50;99.90;;;;;;4933801;29;20039;-59
2023/08/21 04:20:00;;;;;;;10.75;9.57;;;17.50;99.90;;;;;;4951786;28;20707;-58
2023/08/21 04:22:25;;;;;;;9.20;8.20;;;17.50;99.90;;;;;;4943505;28;20020;-58
2023/08/21 04:24:51;;;;;;;11.93;9.32;;;17.40;99.90;;;;;;4930356;29;20052;-59
2023/08/21 04:27:16;;;;;;;9.65;8.48;;;17.40;99.90;;;;;;4955927;28;20024;-58
2023/08/21 04:29:42;;;;;;;11.68;10.10;;;17.40;99.90;;;;;;4948718;28;20030;-58
2023/08/21 04:32:07;;;;;;;9.95;9.05;;;17.50;99.90;;;;;;4944577;28;20408;-58
2023/08/21 04:34:33;;;;;;;12.60;10.25;;;17.40;99.90;;;;;;4942613;29;20090;-58
2023/08/21 04:36:59;;;;;;;10.55;9.50;;;17.50;99.90;;;;;;4962199;28;20497;-59
2023/08/21 04:39:25;;;;;;;10.15;9.20;;;17.50;99.90;;;;;;4949303;28;20431;-59
2023/08/21 04:41:51;;;;;;;10.93;9.10;;;17.60;99.90;;;;;;4939946;28;20031;-58
2023/08/21 04:44:16;;;;;;;12.77;9.77;;;17.60;99.90;;;;;;4936063;28;20058;-58
2023/08/21 04:46:42;;;;;;;12.35;9.85;;;17.60;99.90;;;;;;4929536;29;20489;-58
2023/08/21 04:49:08;;;;;;;13.85;10.52;;;17.60;99.90;;;;;;4948563;28;20027;-58
2023/08/21 04:51:34;;;;;;;14.38;10.43;;;17.60;99.90;;;;;;4941710;28;20032;-59
2023/08/21 04:53:59;;;;;;;12.82;11.43;;;17.70;99.90;;;;;;4946740;29;20519;-60
2023/08/21 04:56:25;;;;;;;12.82;11.20;;;17.70;99.90;;;;;;4948328;28;20528;-59
2023/08/21 04:58:52;;;;;;;11.95;10.07;;;17.80;99.90;;;;;;4948077;28;20031;-59
2023/08/21 05:01:18;;;;;;;13.95;11.30;;;17.90;99.90;;;;;;4946945;28;20061;-59
2023/08/21 05:03:43;;;;;;;16.45;11.48;;;17.90;99.90;;;;;;4936169;29;20024;-59
2023/08/21 05:06:09;;;;;;;11.95;10.40;;;18.00;99.90;;;;;;4942866;29;20020;-59
2023/08/21 05:08:34;;;;;;;15.50;12.18;;;18.00;99.90;;;;;;4940625;29;20024;-59
2023/08/21 05:11:01;;;;;;;15.43;12.50;;;18.00;99.90;;;;;;4941079;28;20111;-59
2023/08/21 05:13:27;;;;;;;13.38;11.98;;;18.10;99.90;;;;;;4953705;28;20024;-59
2023/08/21 05:15:56;;;;;;;17.40;13.15;;;18.10;99.90;;;;;;4941196;28;20039;-59
2023/08/21 05:18:23;;;;;;;16.90;13.30;;;18.10;99.90;;;;;;4943512;28;20039;-59
2023/08/21 05:20:49;;;;;;;14.90;12.23;;;18.20;99.90;;;;;;4945898;28;20024;-59
2023/08/21 05:23:14;;;;;;;15.82;11.35;;;18.20;99.90;;;;;;4948832;28;20098;-59
2023/08/21 05:25:40;;;;;;;17.17;12.15;;;18.20;99.90;;;;;;4950254;28;20434;-58
2023/08/21 05:28:06;;;;;;;13.55;11.48;;;18.30;99.90;;;;;;4965936;28;20023;-59
2023/08/21 05:30:32;;;;;;;12.68;10.82;;;18.30;99.90;;;;;;4945100;28;20040;-58
2023/08/21 05:32:58;;;;;;;11.85;10.68;;;18.30;99.90;;;;;;4932228;29;20054;-59
2023/08/21 05:35:23;;;;;;;18.40;13.20;;;18.40;99.90;;;;;;4932446;29;20399;-59
2023/08/21 05:37:50;;;;;;;16.83;13.18;;;18.40;99.90;;;;;;4931662;29;20046;-59
2023/08/21 05:40:16;;;;;;;18.35;12.80;;;18.40;99.90;;;;;;4939870;29;20106;-59
2023/08/21 05:42:41;;;;;;;18.63;12.93;;;18.50;99.90;;;;;;4947787;29;20091;-59
2023/08/21 05:45:07;;;;;;;17.15;11.82;;;18.50;99.90;;;;;;4951096;28;20472;-58
2023/08/21 05:47:32;;;;;;;14.88;12.88;;;18.50;99.90;;;;;;4950684;29;20078;-57
2023/08/21 05:49:58;;;;;;;12.82;11.50;;;18.50;99.90;;;;;;4948653;28;20065;-59
2023/08/21 05:52:23;;;;;;;15.63;12.80;;;18.60;99.90;;;;;;4951078;28;20065;-59
2023/08/21 05:54:49;;;;;;;18.83;13.32;;;18.60;99.90;;;;;;4950813;28;20274;-59
2023/08/21 05:57:15;;;;;;;13.50;11.48;;;18.60;99.90;;;;;;4950853;28;20507;-58
2023/08/21 05:59:47;;;;;;;16.25;12.63;;;18.70;99.90;;;;;;4951141;29;20062;-59
2023/08/21 06:02:13;;;;;;;16.60;12.35;;;18.70;99.90;;;;;;4951352;28;20102;-59
2023/08/21 06:04:40;;;;;;;14.82;12.05;;;18.80;99.90;;;;;;4951077;28;20392;-58
2023/08/21 06:07:06;;;;;;;19.67;13.70;;;18.80;99.90;;;;;;4943943;29;20031;-59
2023/08/21 06:09:33;;;;;;;13.82;11.35;;;18.80;99.90;;;;;;4949129;29;20126;-59
2023/08/21 06:12:02;;;;;;;14.63;11.68;;;18.90;99.90;;;;;;4942133;29;20533;-58
2023/08/21 06:14:31;;;;;;;13.00;11.70;;;19.00;99.90;;;;;;4938313;29;20021;-59
2023/08/21 06:16:58;;;;;;;14.75;11.75;;;19.00;99.90;;;;;;4948596;29;20481;-59
2023/08/21 06:19:24;;;;;;;12.80;10.07;;;19.10;99.90;;;;;;4950625;28;20081;-59
2023/08/21 06:21:50;;;;;;;13.38;11.07;;;19.20;99.90;;;;;;4951085;29;20062;-59
2023/08/21 06:24:16;;;;;;;13.27;10.23;;;19.30;99.90;;;;;;4946248;29;20008;-59
2023/08/21 06:26:41;;;;;;;11.38;9.93;;;19.40;99.90;;;;;;4946202;28;20527;-59
2023/08/21 06:29:07;;;;;;;11.98;9.32;;;19.50;99.90;;;;;;4950786;28;20488;-59
2023/08/21 06:31:33;;;;;;;9.60;8.70;;;19.70;99.90;;;;;;4946357;28;20055;-59
2023/08/21 06:33:58;;;;;;;15.20;9.90;;;19.80;99.90;;;;;;4949138;29;20099;-58
2023/08/21 06:36:24;;;;;;;10.52;8.45;;;19.90;99.90;;;;;;4949690;28;20035;-58
2023/08/21 06:38:49;;;;;;;14.20;9.38;;;19.90;99.90;;;;;;4949968;29;20027;-58
2023/08/21 06:41:15;;;;;;;9.40;8.50;;;20.00;99.90;;;;;;4950381;29;20032;-58
2023/08/21 06:43:41;;;;;;;11.07;9.05;;;20.10;99.90;;;;;;4950614;28;20024;-59
2023/08/21 06:46:07;;;;;;;12.32;9.20;;;20.20;99.90;;;;;;4964708;28;20070;-57
2023/08/21 06:48:32;;;;;;;13.88;9.07;;;20.30;99.90;;;;;;4950122;29;20047;-57
2023/08/21 06:50:58;;;;;;;11.02;8.02;;;20.30;99.90;;;;;;4950206;28;20034;-59
2023/08/21 06:53:24;;;;;;;8.80;7.93;;;20.30;99.90;;;;;;4949871;29;20342;-57
2023/08/21 06:55:49;;;;;;;8.70;6.68;;;20.40;99.90;;;;;;4950073;28;20732;-58
2023/08/21 06:58:15;;;;;;;7.80;7.07;;;20.50;99.90;;;;;;4949739;29;20023;-58
2023/08/21 07:00:40;;;;;;;8.38;6.20;;;20.70;99.90;;;;;;4945077;28;20111;-58
2023/08/21 07:03:09;;;;;;;9.68;6.93;;;20.90;99.90;;;;;;4947433;29;20028;-58
2023/08/21 07:05:34;;;;;;;7.55;6.82;;;21.00;99.90;;;;;;4949697;28;20028;-58
2023/08/21 07:08:00;;;;;;;7.50;5.07;;;21.20;99.90;;;;;;4949314;29;20028;-58
2023/08/21 07:10:25;;;;;;;10.05;6.05;;;21.30;99.90;;;;;;4949892;28;20065;-58
2023/08/21 07:12:53;;;;;;;7.80;6.10;;;21.40;99.90;;;;;;4949847;28;20524;-58
2023/08/21 07:15:18;;;;;;;9.95;5.32;;;21.50;99.90;;;;;;4949776;28;20455;-58
2023/08/21 07:17:44;;;;;;;7.05;5.28;;;21.50;99.90;;;;;;4949640;28;20129;-58
2023/08/21 07:20:10;;;;;;;8.05;5.68;;;21.60;99.90;;;;;;4949407;28;20526;-58
2023/08/21 07:22:36;;;;;;;9.43;5.93;;;21.70;99.90;;;;;;4949788;28;20030;-58
2023/08/21 07:25:04;;;;;;;8.73;5.40;;;21.80;99.90;;;;;;4949972;28;20024;-58
2023/08/21 07:27:30;;;;;;;13.65;5.80;;;22.10;99.90;;;;;;4949172;28;20132;-58
2023/08/21 07:29:55;;;;;;;7.20;5.30;;;22.20;99.90;;;;;;4949482;29;20031;-58
2023/08/21 07:32:21;;;;;;;8.65;5.90;;;22.40;99.90;;;;;;4949359;28;20031;-58
2023/08/21 07:34:46;;;;;;;7.50;5.20;;;22.50;99.90;;;;;;4949402;28;20444;-57
2023/08/21 07:37:13;;;;;;;15.45;11.15;;;22.60;99.90;;;;;;4948632;29;20047;-58
2023/08/21 07:39:38;;;;;;;9.98;7.63;;;22.60;99.90;;;;;;4949307;29;20032;-58
2023/08/21 07:42:04;;;;;;;8.13;6.10;;;22.60;99.90;;;;;;4946604;29;20027;-59
2023/08/21 07:44:30;;;;;;;9.05;5.22;;;22.70;99.90;;;;;;4930538;28;20029;-59
2023/08/21 07:46:55;;;;;;;7.40;5.07;;;22.80;99.90;;;;;;4930281;29;20062;-58
2023/08/21 07:49:21;;;;;;;9.25;4.32;;;22.90;99.90;;;;;;4940950;28;20480;-58
2023/08/21 07:51:46;;;;;;;8.68;3.65;;;23.10;99.90;;;;;;4941642;29;20378;-59
2023/08/21 07:54:12;;;;;;;8.23;3.42;;;23.40;99.90;;;;;;4941023;28;20400;-59
2023/08/21 07:56:39;;;;;;;8.00;3.17;;;23.50;99.90;;;;;;4937808;29;20040;-58
2023/08/21 07:59:05;;;;;;;7.95;3.17;;;23.70;99.90;;;;;;4940981;29;20027;-59
2023/08/21 08:01:30;;;;;;;10.32;3.45;;;23.80;99.90;;;;;;4945775;29;20322;-59
2023/08/21 08:03:56;;;;;;;5.30;2.72;;;23.70;99.90;;;;;;4945273;28;20015;-59
2023/08/21 08:06:21;;;;;;;10.80;3.25;;;23.70;99.90;;;;;;4943212;28;20466;-59
2023/08/21 08:08:47;;;;;;;8.80;3.42;;;23.70;99.90;;;;;;4941017;28;20348;-59
2023/08/21 08:11:12;;;;;;;8.25;2.80;;;23.80;99.90;;;;;;4938063;28;20035;-59
2023/08/21 08:13:38;;;;;;;4.78;3.10;;;23.80;99.90;;;;;;4936545;29;20032;-59
2023/08/21 08:16:03;;;;;;;5.03;2.92;;;24.00;99.90;;;;;;4942931;29;20385;-59
2023/08/21 08:18:29;;;;;;;6.95;2.60;;;24.70;99.90;;;;;;4939083;29;20405;-59
2023/08/21 08:20:54;;;;;;;3.88;2.72;;;26.00;99.90;;;;;;4945802;29;20126;-59
2023/08/21 08:23:20;;;;;;;6.57;2.92;;;26.60;99.90;;;;;;4939367;29;20065;-59
2023/08/21 08:25:47;;;;;;;8.13;2.50;;;26.80;99.30;;;;;;4941143;29;20118;-59
2023/08/21 08:28:12;;;;;;;5.03;2.00;;;26.80;98.50;;;;;;4936500;28;20559;-59
2023/08/21 08:30:38;;;;;;;4.38;1.90;;;26.70;98.70;;;;;;4935689;29;20039;-59
2023/08/21 08:33:03;;;;;;;7.22;2.00;;;26.50;99.60;;;;;;4943814;28;20027;-59
2023/08/21 08:35:29;;;;;;;8.02;2.20;;;26.70;98.20;;;;;;4948548;29;20039;-59
2023/08/21 08:37:54;;;;;;;4.15;2.05;;;26.80;98.00;;;;;;4948084;28;20382;-57
2023/08/21 08:40:20;;;;;;;4.78;2.40;;;26.70;97.60;;;;;;4948790;28;20027;-58
2023/08/21 08:42:47;;;;;;;3.58;2.13;;;26.40;98.90;;;;;;4948506;29;20448;-59
2023/08/21 08:45:14;;;;;;;4.50;2.50;;;26.40;98.00;;;;;;4948480;28;20031;-59
2023/08/21 08:47:40;;;;;;;6.07;2.88;;;26.40;97.50;;;;;;4948069;28;20031;-59
2023/08/21 08:50:08;;;;;;;7.57;2.20;;;26.10;97.30;;;;;;4948928;28;20059;-59
2023/08/21 08:52:39;;;;;;;5.30;2.13;;;25.80;97.10;;;;;;4947304;28;20023;-58
2023/08/21 08:55:06;;;;;;;4.70;2.40;;;25.40;98.30;;;;;;4948233;28;20027;-58
2023/08/21 08:57:33;;;;;;;4.65;2.00;;;25.40;98.30;;;;;;4947728;28;20035;-58
2023/08/21 08:59:59;;;;;;;2.88;1.67;;;25.30;99.30;;;;;;4948857;28;20058;-58
2023/08/21 09:02:28;;;;;;;4.15;2.05;;;25.30;99.30;;;;;;4951103;28;20043;-58
2023/08/21 09:04:54;;;;;;;5.80;2.30;;;25.30;99.50;;;;;;4951857;28;20055;-58
2023/08/21 09:07:20;;;;;;;3.38;1.95;;;25.30;99.70;;;;;;4946788;28;20078;-59
2023/08/21 09:09:49;;;;;;;4.63;2.20;;;25.70;99.10;;;;;;4946845;29;20106;-58
2023/08/21 09:12:15;;;;;;;4.25;1.88;;;25.90;98.30;;;;;;4951632;28;20027;-59
2023/08/21 09:14:41;;;;;;;4.70;2.20;;;26.50;97.90;;;;;;4951244;29;20083;-58
2023/08/21 09:17:07;;;;;;;4.85;1.85;;;27.40;96.60;;;;;;4951058;29;20032;-59
2023/08/21 09:19:33;;;;;;;4.78;2.03;;;27.90;95.80;;;;;;4952070;28;20093;-59
2023/08/21 09:21:59;;;;;;;8.65;2.65;;;28.10;95.70;;;;;;4947369;28;20032;-59
2023/08/21 09:24:24;;;;;;;5.22;2.13;;;28.30;93.70;;;;;;4951198;28;20024;-59
2023/08/21 09:26:50;;;;;;;5.45;1.75;;;29.00;93.40;;;;;;4950763;28;20387;-59
2023/08/21 09:29:17;;;;;;;2.95;1.80;;;29.50;92.00;;;;;;4951317;28;20031;-59
2023/08/21 09:31:45;;;;;;;3.97;1.67;;;29.90;91.80;;;;;;4951237;29;20035;-57
2023/08/21 09:34:11;;;;;;;3.70;1.83;;;29.70;90.80;;;;;;4951063;28;20336;-57
2023/08/21 09:36:39;;;;;;;7.43;1.95;;;29.20;91.00;;;;;;4950689;28;20251;-59
2023/08/21 09:39:06;;;;;;;8.13;2.00;;;28.90;90.80;;;;;;4951156;28;20031;-59
2023/08/21 09:41:31;;;;;;;3.47;1.60;;;29.40;91.50;;;;;;4950916;28;20023;-59
2023/08/21 09:44:01;;;;;;;5.18;1.67;;;29.90;90.40;;;;;;4947900;29;20037;-59
2023/08/21 09:46:28;;;;;;;4.60;1.77;;;29.50;90.60;;;;;;4947113;28;20066;-59
2023/08/21 09:48:54;;;;;;;3.75;1.95;;;30.30;88.80;;;;;;4948824;28;20031;-59
2023/08/21 09:51:20;;;;;;;4.65;2.25;;;30.60;88.60;;;;;;4941415;28;20528;-59
2023/08/21 09:53:48;;;;;;;4.00;2.08;;;31.20;85.70;;;;;;4951551;28;20031;-59
2023/08/21 09:56:14;;;;;;;7.32;1.85;;;31.60;86.40;;;;;;4950746;28;20431;-59
2023/08/21 09:58:40;;;;;;;4.10;1.63;;;32.10;85.00;;;;;;4950883;28;20114;-59
2023/08/21 10:01:13;;;;;;;9.15;1.98;;;32.30;83.70;;;;;;4950697;28;20420;-59
2023/08/21 10:03:41;;;;;;;4.32;1.92;;;32.40;81.30;;;;;;4950297;28;20023;-59
2023/08/21 10:06:09;;;;;;;5.63;2.15;;;32.00;82.80;;;;;;4943119;28;20023;-59
2023/08/21 10:08:39;;;;;;;8.73;2.30;;;32.70;80.80;;;;;;4975415;28;20036;-59
2023/08/21 10:11:08;;;;;;;5.57;2.17;;;33.00;80.40;;;;;;4947612;28;20047;-59
2023/08/21 10:13:34;;;;;;;5.18;1.60;;;33.90;78.80;;;;;;4930854;28;20043;-59
2023/08/21 10:16:01;;;;;;;2.90;1.70;;;33.80;74.70;;;;;;4938468;29;20031;-59
2023/08/21 10:18:35;;;;;;;5.00;1.95;;;33.70;76.90;;;;;;4954291;28;20115;-59
2023/08/21 10:21:15;;;;;;;4.57;1.60;;;33.10;77.70;;;;;;4956578;28;20058;-59
2023/08/21 10:23:42;;;;;;;4.80;1.80;;;32.50;75.60;;;;;;4940219;28;20507;-59
2023/08/21 10:26:09;;;;;;;3.60;1.70;;;32.10;76.40;;;;;;4939622;29;20036;-59
2023/08/21 10:28:42;;;;;;;4.68;1.70;;;32.10;80.10;;;;;;4948950;28;20032;-59
2023/08/21 10:31:36;;;;;;;7.03;1.98;;;31.80;80.20;;;;;;4940559;29;20024;-59
2023/08/21 10:34:04;;;;;;;6.40;2.08;;;32.00;78.10;;;;;;4938867;28;20118;-59
2023/08/21 10:36:42;;;;;;;4.93;2.30;;;31.50;80.30;;;;;;4937276;29;20105;-59
2023/08/21 10:39:14;;;;;;;4.72;1.85;;;30.80;79.50;;;;;;4933762;28;20027;-60
2023/08/21 10:41:40;;;;;;;3.80;1.52;;;30.70;79.40;;;;;;4946968;28;20032;-60
2023/08/21 10:44:06;;;;;;;8.63;2.08;;;30.30;83.10;;;;;;4946062;28;20313;-60
2023/08/21 10:46:50;;;;;;;6.18;2.05;;;30.20;80.20;;;;;;4936957;28;20532;-59
2023/08/21 10:49:16;;;;;;;7.72;2.28;;;29.90;81.80;;;;;;4940436;28;20023;-59
2023/08/21 10:51:43;;;;;;;5.60;2.38;;;29.50;81.10;;;;;;4939411;29;20412;-60
2023/08/21 10:54:13;;;;;;;5.53;2.25;;;29.30;82.80;;;;;;4939789;28;20085;-59
2023/08/21 10:56:39;;;;;;;6.78;2.05;;;28.90;84.80;;;;;;4942276;28;20099;-60
2023/08/21 10:59:05;;;;;;;6.65;2.72;;;28.70;83.60;;;;;;4945731;28;20114;-60
2023/08/21 11:01:44;;;;;;;6.13;2.10;;;28.50;86.00;;;;;;4948960;29;20024;-60
2023/08/21 11:04:11;;;;;;;5.20;1.83;;;28.70;85.10;;;;;;4948872;28;20104;-60
2023/08/21 11:06:36;;;;;;;4.15;1.98;;;28.70;82.50;;;;;;4948706;29;20133;-59
2023/08/21 11:09:03;;;;;;;5.65;2.28;;;28.40;87.10;;;;;;4948822;28;20031;-59
2023/08/21 11:11:29;;;;;;;6.50;2.10;;;28.10;89.30;;;;;;4949440;28;20082;-59
2023/08/21 11:13:54;;;;;;;5.43;2.00;;;28.00;85.70;;;;;;4990458;28;20031;-60
2023/08/21 11:16:20;;;;;;;4.55;2.03;;;27.80;85.30;;;;;;4948825;29;20045;-60
2023/08/21 11:18:46;;;;;;;4.85;1.60;;;27.70;84.60;;;;;;4948497;28;20023;-60
2023/08/21 11:21:12;;;;;;;3.85;1.92;;;27.60;87.60;;;;;;4947633;28;20062;-60
2023/08/21 11:23:42;;;;;;;8.35;2.47;;;27.50;87.30;;;;;;4948161;29;20488;-60
2023/08/21 11:26:11;;;;;;;5.80;1.77;;;27.50;87.60;;;;;;4949004;28;20032;-60
2023/08/21 11:28:37;;;;;;;8.40;2.00;;;27.40;89.80;;;;;;4948082;28;20034;-60
2023/08/21 11:31:04;;;;;;;9.57;2.30;;;27.30;88.50;;;;;;4948481;28;20030;-60
2023/08/21 11:33:30;;;;;;;6.03;2.17;;;27.20;90.10;;;;;;4948547;28;20532;-60
2023/08/21 11:35:57;;;;;;;6.60;2.25;;;27.00;89.90;;;;;;4948796;28;20353;-60
2023/08/21 11:38:24;;;;;;;5.53;1.60;;;27.00;87.70;;;;;;4948012;28;20027;-59
2023/08/21 11:41:00;;;;;;;4.18;1.98;;;27.10;87.80;;;;;;4938105;28;20304;-59
2023/08/21 11:43:38;;;;;;;4.20;1.50;;;27.20;85.80;;;;;;4990107;28;20137;-59
2023/08/21 11:46:05;;;;;;;9.35;2.05;;;27.90;89.00;;;;;;4948060;29;20562;-58
2023/08/21 11:48:31;;;;;;;3.97;1.38;;;28.60;81.40;;;;;;4948319;28;20023;-58
2023/08/21 11:50:56;;;;;;;4.85;1.75;;;29.00;83.90;;;;;;4948405;28;20477;-60
2023/08/21 11:53:36;;;;;;;7.47;1.75;;;30.20;84.10;;;;;;4948238;28;20035;-59
2023/08/21 11:56:03;;;;;;;5.93;1.90;;;31.60;79.10;;;;;;4948591;28;20465;-59
2023/08/21 11:58:29;;;;;;;6.57;1.63;;;32.90;78.70;;;;;;4943027;28;20034;-59
2023/08/21 12:01:03;;;;;;;5.53;1.38;;;33.80;74.00;;;;;;4943657;29;20031;-60
2023/08/21 12:03:29;;;;;;;8.25;1.40;;;34.80;72.40;;;;;;4948651;28;20043;-59
2023/08/21 12:05:55;;;;;;;4.20;1.30;;;35.20;71.90;;;;;;4948285;29;20051;-60
2023/08/21 12:08:21;;;;;;;5.05;1.60;;;34.10;71.80;;;;;;4948217;28;20054;-59
2023/08/21 12:10:52;;;;;;;4.82;2.05;;;33.70;71.90;;;;;;4935522;29;20073;-59
2023/08/21 12:13:17;;;;;;;2.53;1.30;;;33.30;69.20;;;;;;4938502;29;20023;-61
2023/08/21 12:15:43;;;;;;;4.47;1.48;;;32.70;68.90;;;;;;4946154;28;20031;-61
2023/08/21 12:18:09;;;;;;;5.47;1.50;;;32.60;73.40;;;;;;4944210;29;20031;-59
2023/08/21 12:20:34;;;;;;;8.30;3.30;;;32.90;73.20;;;;;;4948674;28;20484;-60
2023/08/21 12:23:00;;;;;;;5.80;2.03;;;33.00;74.80;;;;;;4948720;29;20038;-59
2023/08/21 12:25:25;;;;;;;4.22;2.15;;;32.70;72.30;;;;;;4949547;28;20073;-59
2023/08/21 12:27:51;;;;;;;5.43;2.70;;;32.60;74.30;;;;;;4943529;28;20050;-59
2023/08/21 12:30:16;;;;;;;4.45;1.90;;;32.70;70.50;;;;;;4947204;28;20523;-60
2023/08/21 12:32:42;;;;;;;6.20;2.67;;;32.70;70.50;;;;;;4948571;29;20023;-60
2023/08/21 12:35:11;;;;;;;7.82;2.47;;;32.70;71.70;;;;;;4948022;28;20066;-60
2023/08/21 12:37:36;;;;;;;5.57;2.08;;;32.70;72.80;;;;;;4943559;28;20397;-59
2023/08/21 12:40:02;;;;;;;8.30;2.08;;;32.70;73.40;;;;;;4944219;28;20035;-60